Πλησιέστερες Αναφορές METAR

 

LGTS - Thessaloniki/Makedonia-Elev 7m
Απόσταση από σταθμό: Ν 13km
Ενημερώθηκε: 19/08/2018 21:50
Διάσπαρτα Νέφη
Διάσπαρτα Νέφη
 Ανεμοι από μεταβλητός
Ανεμος: μεταβλητός 6 km/h
Θερμοκρασία: 26°C
Σημείο Δρόσου: 12°C
Υγρασία: 42%
Βαρόμετρο: 1012 hPa
Νέφωση: Διάσπαρτα Νέφη
Ορατότητα: 10 km
Λεπτομέρειες Νεφών: Διάσπαρτα Νέφη 762 m
2018/08/19 18:50 LGTS 191850Z VRB03KT 9999 FEW025 26/12 Q1012 NOSIG
LGAV - Athens/Elef. Venizelos-Elev 94m
Απόσταση από σταθμό: ΝΝΑ 312km
Ενημερώθηκε: 19/08/2018 21:50
Αίθριος
Αίθριος
 Ανεμοι από Β
Ανεμος: Β 20 km/h
Θερμοκρασία: 30°C
Σημείο Δρόσου: 12°C
Υγρασία: 33%
Βαρόμετρο: 1010 hPa
Περίληψη: Αίθριος
Ορατότητα: πάνω από 10 km
2018/08/19 18:50 LGAV 191850Z 35011KT CAVOK 30/12 Q1010 NOSIG
 
LGAL - Alexandroupolis-Elev 3m
Απόσταση από σταθμό: Α 251km
Ενημερώθηκε: 19/08/2018 21:50
Διάσπαρτα Νέφη
Διάσπαρτα Νέφη
 Ανεμοι από ΒΑ
Ανεμος: ΒΑ 15 km/h
Θερμοκρασία: 29°C
Δείκτης Δυσφορίας: 28°C
Σημείο Δρόσου: 14°C
Υγρασία: 40%
Βαρόμετρο: 1012 hPa
Νέφωση: Διάσπαρτα Νέφη
Ορατότητα: 10 km
Λεπτομέρειες Νεφών: Διάσπαρτα Νέφη 914 m
2018/08/19 18:50 LGAL 191850Z 04008KT 9999 FEW030 29/14 Q1012
LGKV - Kavala/Crysoupolis-Elev 5m
Απόσταση από σταθμό: ΑΒΑ 144km
Ενημερώθηκε: 19/08/2018 21:50
Διάσπαρτα Νέφη
Διάσπαρτα Νέφη
 Ανεμοι από ΒΑ
Ανεμος: ΒΑ 19 km/h
Θερμοκρασία: 28°C
Δείκτης Δυσφορίας: 28°C
Σημείο Δρόσου: 15°C
Υγρασία: 45%
Βαρόμετρο: 1012 hPa
Νέφωση: Διάσπαρτα Νέφη
Ορατότητα: 10 km
Λεπτομέρειες Νεφών: Διάσπαρτα Νέφη 762 m
2018/08/19 18:50 LGKV 191850Z 04010KT 9999 FEW025 28/15 Q1012
 
LGSK - Skiathos Island-Elev 15m
Απόσταση από σταθμό: ΝΝΑ 168km
Ενημερώθηκε: 19/08/2018 21:50
Αίθριος
Αίθριος
 Ανεμοι από Β
Ανεμος: Β 9 km/h
Θερμοκρασία: 30°C
Δείκτης Δυσφορίας: 31°C
Σημείο Δρόσου: 18°C
Υγρασία: 49%
Βαρόμετρο: 1011 hPa
Περίληψη: Αίθριος
Ορατότητα: πάνω από 10 km
2018/08/19 18:50 LGSK 191850Z 35005KT CAVOK 30/18 Q1011
LGLM - Limnos Island-Elev 5m
Απόσταση από σταθμό: ΑΝΑ 210km
Ενημερώθηκε: 19/08/2018 21:50
Αίθριος
Αίθριος
 Ανεμοι από ΒΑ
Ανεμος: ΒΑ 15 km/h
Θερμοκρασία: 28°C
Δείκτης Δυσφορίας: 28°C
Σημείο Δρόσου: 17°C
Υγρασία: 51%
Βαρόμετρο: 1011 hPa
Περίληψη: Αίθριος
Ορατότητα: πάνω από 10 km
2018/08/19 18:50 LGLM 191850Z 04008KT CAVOK 28/17 Q1011
 
LGMT - Mitilini Island-Elev 17m
Απόσταση από σταθμό: ΑΝΑ 358km
Ενημερώθηκε: 19/08/2018 21:50
Αίθριος
Αίθριος
 Ανεμοι από ΒΔ
Ανεμος: ΒΔ 11 km/h
Θερμοκρασία: 27°C
Δείκτης Δυσφορίας: 28°C
Σημείο Δρόσου: 19°C
Υγρασία: 62%
Βαρόμετρο: 1009 hPa
Περίληψη: Αίθριος
Ορατότητα: πάνω από 10 km
2018/08/19 18:50 LGMT 191850Z 31006KT 260V360 CAVOK 27/19 Q1009
LGSY - Skiros Island-Elev 15m
Απόσταση από σταθμό: ΝΑ 227km
Ενημερώθηκε: 19/08/2018 20:50
ΜΗ Ενημερωμένο METAR!
Αίθριος
Αίθριος
 Ανεμοι από ΒΒΔ
Ανεμος: ΒΒΔ 28 km/h
Θερμοκρασία: 27°C
Δείκτης Δυσφορίας: 29°C
Σημείο Δρόσου: 21°C
Υγρασία: 70%
Βαρόμετρο: 1010 hPa
Περίληψη: Αίθριος
Ορατότητα: πάνω από 10 km
2018/08/19 17:50 LGSY 191750Z 34015KT CAVOK 27/21 Q1010 RMK FEW200 BLU
 
LGKZ - Kozani-Elev 628m
Απόσταση από σταθμό: ΔΝΔ 102km
Ενημερώθηκε: 19/08/2018 20:50
ΜΗ Ενημερωμένο METAR!
Αίθριος
Αίθριος
 Ανεμοι από άπνοια
Ανεμος: άπνοια
Θερμοκρασία: 25°C
Σημείο Δρόσου: 11°C
Υγρασία: 42%
Βαρόμετρο: 1016 hPa
Περίληψη: Αίθριος
Ορατότητα: πάνω από 10 km
2018/08/19 17:50 LGKZ 191750Z 00000KT CAVOK 25/11 Q1016
LGIO - Ioannina-Elev 476m
Απόσταση από σταθμό: ΔΝΔ 209km
Ενημερώθηκε: 19/08/2018 21:50
Διάσπαρτα Νέφη
Διάσπαρτα Νέφη
 Ανεμοι από μεταβλητός
Ανεμος: μεταβλητός 0 km/h
Θερμοκρασία: 25°C
Σημείο Δρόσου: 13°C
Υγρασία: 47%
Βαρόμετρο: 1014 hPa
Νέφωση: Διάσπαρτα Νέφη
Ορατότητα: 10 km
Λεπτομέρειες Νεφών: Διάσπαρτα Νέφη 2438 m
2018/08/19 18:50 LGIO 191850Z /////KT 9999 FEW080 25/13 Q1014
 
LGZA - Zakinthos-Elev 3m
Απόσταση από σταθμό: ΝΝΔ 367km
Ενημερώθηκε: 19/08/2018 21:50
Αίθριος
Αίθριος
 Ανεμοι από ΔΒΔ
Ανεμος: ΔΒΔ 7 km/h
Θερμοκρασία: 28°C
Δείκτης Δυσφορίας: 29°C
Σημείο Δρόσου: 18°C
Υγρασία: 55%
Βαρόμετρο: 1009 hPa
Περίληψη: Αίθριος
Ορατότητα: πάνω από 10 km
2018/08/19 18:50 LGZA 191850Z 30004KT CAVOK 28/18 Q1009
LGKR - Corfu Island-Elev 2m
Απόσταση από σταθμό: ΔΝΔ 282km
Ενημερώθηκε: 19/08/2018 21:50
Διάσπαρτα Νέφη
Διάσπαρτα Νέφη
 Ανεμοι από άπνοια
Ανεμος: άπνοια
Θερμοκρασία: 29°C
Δείκτης Δυσφορίας: 33°C
Σημείο Δρόσου: 24°C
Υγρασία: 74%
Βαρόμετρο: 1011 hPa
Νέφωση: Διάσπαρτα Νέφη
Ορατότητα: 10 km
Λεπτομέρειες Νεφών: Διάσπαρτα Νέφη 914 m
2018/08/19 18:50 LGKR 191850Z 00000KT 9999 FEW030 29/24 Q1011 NOSIG
 
LGSO - Syros Island-Elev 72m
Απόσταση από σταθμό: ΝΝΑ 397km
Ενημερώθηκε: 19/08/2018 21:50

 Ανεμοι από ΒΒΔ
Ανεμος: ΒΒΔ 26 km/h
Θερμοκρασία: 28°C
Δείκτης Δυσφορίας: 28°C
Σημείο Δρόσου: 15°C
Υγρασία: 45%
Βαρόμετρο: 1007 hPa
2018/08/19 18:50 LGSO 191850Z AUTO 34014KT //// // ////// 28/15 Q1007 RE//
LGMK - Mikonos Island-Elev 123m
Απόσταση από σταθμό: ΝΝΑ 412km
Ενημερώθηκε: 19/08/2018 21:50
Διάσπαρτα Νέφη
Διάσπαρτα Νέφη
 Ανεμοι από ΒΒΑ
Ανεμος: ΒΒΑ 17 km/h
Θερμοκρασία: 26°C
Σημείο Δρόσου: 19°C
Υγρασία: 65%
Βαρόμετρο: 1007 hPa
Νέφωση: Διάσπαρτα Νέφη
Ορατότητα: 10 km
Λεπτομέρειες Νεφών: Διάσπαρτα Νέφη 610 m
2018/08/19 18:50 LGMK 191850Z 02009KT 9999 FEW020 26/19 Q1007
 
LGSR - Santorini Island-Elev 40m
Απόσταση από σταθμό: ΝΝΑ 520km
Ενημερώθηκε: 19/08/2018 21:50
Διάσπαρτα Νέφη
Διάσπαρτα Νέφη
 Ανεμοι από Δ
Ανεμος: Δ 19 km/h
Θερμοκρασία: 27°C
Δείκτης Δυσφορίας: 29°C
Σημείο Δρόσου: 20°C
Υγρασία: 66%
Βαρόμετρο: 1007 hPa
Νέφωση: Διάσπαρτα Νέφη
Ορατότητα: 10 km
Λεπτομέρειες Νεφών: Διάσπαρτα Νέφη 762 m
2018/08/19 18:50 LGSR 191850Z 28010KT 9999 FEW025 27/20 Q1007
LGKL - Kalamata-Elev 8m
Απόσταση από σταθμό: Ν 405km
Ενημερώθηκε: 19/08/2018 21:50
Διάσπαρτα Νέφη
Διάσπαρτα Νέφη
 Ανεμοι από άπνοια
Ανεμος: άπνοια
Θερμοκρασία: 26°C
Σημείο Δρόσου: 16°C
Υγρασία: 54%
Βαρόμετρο: 1009 hPa
Νέφωση: Διάσπαρτα Νέφη
Ορατότητα: 10 km
Λεπτομέρειες Νεφών: Διάσπαρτα Νέφη 2438 m
2018/08/19 18:50 LGKL 191850Z 00000KT 9999 FEW080 26/16 Q1009
 
LGIR - Iraklion/Crete-Elev 5m
Απόσταση από σταθμό: ΝΝΑ 622km
Ενημερώθηκε: 19/08/2018 21:50
Αίθριος
Αίθριος
 Ανεμοι από Δ
Ανεμος: Δ 26 km/h
Θερμοκρασία: 28°C
Δείκτης Δυσφορίας: 29°C
Σημείο Δρόσου: 19°C
Υγρασία: 58%
Βαρόμετρο: 1008 hPa
Περίληψη: Αίθριος
Ορατότητα: πάνω από 10 km
2018/08/19 18:50 LGIR 191850Z 28014KT CAVOK 28/19 Q1008 NOSIG
LGRP - Rhodes-Elev 5m
Απόσταση από σταθμό: ΝΑ 649km
Ενημερώθηκε: 19/08/2018 21:50
Αίθριος
Αίθριος
 Ανεμοι από ΝΔ
Ανεμος: ΝΔ 11 km/h
Θερμοκρασία: 27°C
Δείκτης Δυσφορίας: 30°C
Σημείο Δρόσου: 23°C
Υγρασία: 79%
Βαρόμετρο: 1005 hPa
Περίληψη: Αίθριος
Ορατότητα: πάνω από 10 km
2018/08/19 18:50 LGRP 191850Z 23006KT CAVOK 27/23 Q1005 NOSIG
 
LWOH - Ohrid/FYROM-Elev 761m
Απόσταση από σταθμό: ΔΒΔ 188km
Ενημερώθηκε: 19/08/2018 22:00
Μερικώς νεφελώδης
Μερικώς νεφελώδης
 Ανεμοι από ΒΒΔ
Ανεμος: ΒΒΔ 6 km/h
Θερμοκρασία: 18°C
Σημείο Δρόσου: 12°C
Υγρασία: 68%
Βαρόμετρο: 1018 hPa
Νέφωση: Μερικώς νεφελώδης
Ορατότητα: 10 km
Λεπτομέρειες Νεφών: Διάσπαρτα Νέφη 1067 m
Μερικώς νεφελώδης 3658 m
2018/08/19 19:00 LWOH 191900Z 34003KT 9999 FEW035 SCT120 18/12 Q1018
LBSF - Sofia/Bulgaria-Elev 595m
Απόσταση από σταθμό: Β 227km
Ενημερώθηκε: 19/08/2018 22:00
Αίθριος
Αίθριος
 Ανεμοι από ΝΝΑ
Ανεμος: ΝΝΑ 9 km/h
Θερμοκρασία: 24°C
Σημείο Δρόσου: 14°C
Υγρασία: 54%
Βαρόμετρο: 1018 hPa
Περίληψη: Αίθριος
Ορατότητα: πάνω από 10 km
2018/08/19 19:00 LBSF 191900Z 15005KT CAVOK 24/14 Q1018 NOSIG